Trans Sea — 9HA2564 — position and weather

sailwx.info

Track history (hours):
 
Tides and Currents Weather Stations Pressure Air Temp Water Temp Dewpoint Dewpoint Depression Visibility Wind Speed Wind Dir Waves Ship Positions

Trans Sea

Last reported at 2016-Jul-22 16:29 UTC. Time now 2016-Jul-24 04:54 UTC.
Position N 39°07' W 009°48'.

Length 107 m; draft 4.8 m.

Type: Ship (hazmat cat B). MMSI: 248887000.

Date/timePositionNaut miles runAvg speedWind from/ knotsBaromVisibWave heightAir tempDewpointWater temp
2016-Jul-22 16:29N 39°07' W 009°48'3511.7
2016-Jul-22 13:29N 38°32' W 009°47'1111.6
2016-Jul-22 12:34N 38°21' W 009°44'1211.7
2016-Jul-22 11:32N 38°09' W 009°41'2311.7
2016-Jul-22 09:33N 37°47' W 009°35'9010.8
2016-Jul-22 01:13N 36°33' W 008°31'2011.8
2016-Jul-21 23:34N 36°28' W 008°07'2311.5
2016-Jul-21 21:33N 36°21' W 007°40'1211.7
2016-Jul-21 20:33N 36°18' W 007°26'1212.1
2016-Jul-21 19:32N 36°13' W 007°12'2912.7
2016-Jul-21 17:15N 36°04' W 006°38'5012.0
2016-Jul-21 13:07N 35°58' W 005°37'711.8
2016-Jul-21 12:34N 35°60' W 005°29'1211.6
2016-Jul-21 11:33N 36°04' W 005°16'21912.7
2016-Jul-20 18:24N 36°40' W 000°48'1212.5
2016-Jul-20 17:25N 36°43' W 000°33'2412.9
2016-Jul-20 15:33N 36°48' W 000°04'1413.6
2016-Jul-20 14:31N 36°51' E 000°14'1313.8
2016-Jul-20 13:32N 36°54' E 000°30'1513.2
2016-Jul-20 12:24N 36°57' E 000°48'1213.1
2016-Jul-20 11:31N 36°59' E 001°02'1313.1
2016-Jul-20 10:33N 37°02' E 001°18'1313.0
2016-Jul-20 09:33N 37°05' E 001°34'1813.0
2016-Jul-20 08:09N 37°09' E 001°56'812.7
2016-Jul-20 07:33N 37°10' E 002°06'1313.1
2016-Jul-20 06:34N 37°13' E 002°21'1313.1
2016-Jul-20 05:33N 37°16' E 002°38'1413.4
2016-Jul-20 04:32N 37°19' E 002°54'2512.5
2016-Jul-20 02:33N 37°24' E 003°25'1512.3
2016-Jul-20 01:18N 37°27' E 003°44'912.5
2016-Jul-20 00:33N 37°29' E 003°55'6713.4
2016-Jul-19 19:33N 37°39' E 005°19'22313.1
2016-Jul-19 02:33N 37°39' E 010°00'1312.1
2016-Jul-19 01:30N 37°39' E 010°16'1112.2
2016-Jul-19 00:34N 37°38' E 010°31'14312.5
2016-Jul-18 13:06N 37°05' E 013°26'611.9
2016-Jul-18 12:33N 37°02' E 013°33'1211.7
2016-Jul-18 11:33N 36°56' E 013°46'1211.6
2016-Jul-18 10:34N 36°51' E 013°59'1212.4
2016-Jul-18 09:33N 36°46' E 014°12'1313.0
2016-Jul-18 08:33N 36°40' E 014°27'44311.8
2016-Jul-16 19:09N 36°59' E 023°39'813.5
2016-Jul-16 18:33N 37°06' E 023°45'1313.2
2016-Jul-16 17:33N 37°17' E 023°53'17012.7
2016-Jul-16 04:11N 39°46' E 025°38'913.8
2016-Jul-16 03:33N 39°53' E 025°45'5513.5
2016-Jul-15 23:30N 40°25' E 026°43'  
Track history (hours):
 
Tides and Currents Weather Stations Pressure Air Temp Water Temp Dewpoint Dewpoint Depression Visibility Wind Speed Wind Dir Waves Ship Positions

Trans Sea

Last reported at 2016-Jul-22 16:29 UTC. Time now 2016-Jul-24 04:54 UTC.
Position N 39°07' W 009°48'.

Length 107 m; draft 4.8 m.

Type: Ship (hazmat cat B). MMSI: 248887000.

Date/timePositionNaut miles runAvg speedWind from/ knotsBaromVisibWave heightAir tempDewpointWater temp
2016-Jul-22 16:29N 39°07' W 009°48'3511.7
2016-Jul-22 13:29N 38°32' W 009°47'1111.6
2016-Jul-22 12:34N 38°21' W 009°44'1211.7
2016-Jul-22 11:32N 38°09' W 009°41'2311.7
2016-Jul-22 09:33N 37°47' W 009°35'9010.8
2016-Jul-22 01:13N 36°33' W 008°31'2011.8
2016-Jul-21 23:34N 36°28' W 008°07'2311.5
2016-Jul-21 21:33N 36°21' W 007°40'1211.7
2016-Jul-21 20:33N 36°18' W 007°26'1212.1
2016-Jul-21 19:32N 36°13' W 007°12'2912.7
2016-Jul-21 17:15N 36°04' W 006°38'5012.0
2016-Jul-21 13:07N 35°58' W 005°37'711.8
2016-Jul-21 12:34N 35°60' W 005°29'1211.6
2016-Jul-21 11:33N 36°04' W 005°16'21912.7
2016-Jul-20 18:24N 36°40' W 000°48'1212.5
2016-Jul-20 17:25N 36°43' W 000°33'2412.9
2016-Jul-20 15:33N 36°48' W 000°04'1413.6
2016-Jul-20 14:31N 36°51' E 000°14'1313.8
2016-Jul-20 13:32N 36°54' E 000°30'1513.2
2016-Jul-20 12:24N 36°57' E 000°48'1213.1
2016-Jul-20 11:31N 36°59' E 001°02'1313.1
2016-Jul-20 10:33N 37°02' E 001°18'1313.0
2016-Jul-20 09:33N 37°05' E 001°34'1813.0
2016-Jul-20 08:09N 37°09' E 001°56'812.7
2016-Jul-20 07:33N 37°10' E 002°06'1313.1
2016-Jul-20 06:34N 37°13' E 002°21'1313.1
2016-Jul-20 05:33N 37°16' E 002°38'1413.4
2016-Jul-20 04:32N 37°19' E 002°54'2512.5
2016-Jul-20 02:33N 37°24' E 003°25'1512.3
2016-Jul-20 01:18N 37°27' E 003°44'912.5
2016-Jul-20 00:33N 37°29' E 003°55'6713.4
2016-Jul-19 19:33N 37°39' E 005°19'22313.1
2016-Jul-19 02:33N 37°39' E 010°00'1312.1
2016-Jul-19 01:30N 37°39' E 010°16'1112.2
2016-Jul-19 00:34N 37°38' E 010°31'14312.5
2016-Jul-18 13:06N 37°05' E 013°26'611.9
2016-Jul-18 12:33N 37°02' E 013°33'1211.7
2016-Jul-18 11:33N 36°56' E 013°46'1211.6
2016-Jul-18 10:34N 36°51' E 013°59'1212.4
2016-Jul-18 09:33N 36°46' E 014°12'1313.0
2016-Jul-18 08:33N 36°40' E 014°27'44311.8
2016-Jul-16 19:09N 36°59' E 023°39'813.5
2016-Jul-16 18:33N 37°06' E 023°45'1313.2
2016-Jul-16 17:33N 37°17' E 023°53'17012.7
2016-Jul-16 04:11N 39°46' E 025°38'913.8
2016-Jul-16 03:33N 39°53' E 025°45'5513.5
2016-Jul-15 23:30N 40°25' E 026°43'  

Dump ship's entire track history